Time;durP1;ratioP1;P1;durP2;ratioP2;P2;SDS_P1;SDS_P2;PMS_P1;PMS_P2;Temp;Humidity;BMP_temperature;BMP_pressure;BME280_temperature;BME280_humidity;BME280_pressure;Samples;Min_cycle;Max_cycle;Signal;HPM_P1;HPM_P2
2021/12/15 00:01:22;;;;;;;25.92;6.45;;;9.60;99.90;;;;;;6171725;23;20016;-93
2021/12/15 00:05:08;;;;;;;16.70;5.90;;;9.60;99.90;;;;;;6149885;23;20070;-93
2021/12/15 00:08:44;;;;;;;19.35;4.57;;;9.60;99.90;;;;;;6167930;23;20017;-94
2021/12/15 00:15:23;;;;;;;26.92;5.65;;;9.60;99.90;;;;;;6217711;23;20059;-94
2021/12/15 00:18:44;;;;;;;17.90;4.70;;;9.60;99.90;;;;;;6094351;23;20383;-94
2021/12/15 00:21:42;;;;;;;23.20;6.05;;;9.60;99.90;;;;;;6071606;23;20106;-93
2021/12/15 00:24:43;;;;;;;29.88;5.57;;;9.60;99.90;;;;;;6075831;23;20479;-94
2021/12/15 00:28:07;;;;;;;21.75;5.57;;;9.60;99.90;;;;;;6096088;23;20029;-94
2021/12/15 00:31:10;;;;;;;24.80;6.30;;;9.60;99.90;;;;;;6094851;23;20026;-94
2021/12/15 00:33:57;;;;;;;25.35;6.47;;;9.60;99.90;;;;;;6095518;23;20029;-94
2021/12/15 00:37:08;;;;;;;23.35;5.90;;;9.60;99.90;;;;;;6093694;23;20022;-94
2021/12/15 00:41:07;;;;;;;24.80;6.18;;;9.50;99.90;;;;;;6096327;23;20454;-91
2021/12/15 00:44:24;;;;;;;32.80;6.70;;;9.60;99.90;;;;;;6075267;23;20022;-95
2021/12/15 00:51:33;;;;;;;28.65;7.38;;;9.60;99.90;;;;;;6073007;23;20073;-93
2021/12/15 00:55:40;;;;;;;37.53;7.57;;;9.60;99.90;;;;;;6100368;23;20028;-92
2021/12/15 00:59:20;;;;;;;27.73;6.32;;;9.50;99.90;;;;;;6066206;23;20014;-94
2021/12/15 01:07:26;;;;;;;25.35;6.20;;;9.60;99.90;;;;;;6112769;23;20042;-93
2021/12/15 01:11:12;;;;;;;20.70;6.68;;;9.50;99.90;;;;;;6154451;23;20021;-94
2021/12/15 01:21:34;;;;;;;32.33;6.07;;;9.60;99.90;;;;;;6186842;23;20353;-93
2021/12/15 01:28:13;;;;;;;21.98;7.00;;;9.60;99.90;;;;;;6188413;23;20107;-93
2021/12/15 01:31:27;;;;;;;23.35;6.50;;;9.60;99.90;;;;;;6184925;23;20088;-94
2021/12/15 01:34:32;;;;;;;24.75;6.45;;;9.60;99.90;;;;;;6186787;23;20104;-94
2021/12/15 01:37:31;;;;;;;25.08;6.93;;;9.60;99.90;;;;;;6165396;23;20021;-93
2021/12/15 01:41:19;;;;;;;22.88;5.53;;;9.60;99.90;;;;;;6186645;23;20063;-93
2021/12/15 01:48:07;;;;;;;20.55;5.63;;;9.60;99.90;;;;;;6187260;23;20025;-93
2021/12/15 01:51:16;;;;;;;25.25;5.90;;;9.60;99.90;;;;;;6167828;23;20025;-93
2021/12/15 01:54:09;;;;;;;17.70;5.13;;;9.60;99.90;;;;;;6163985;23;20021;-93
2021/12/15 01:57:02;;;;;;;30.33;6.75;;;9.60;99.90;;;;;;6164282;23;20048;-93
2021/12/15 01:59:49;;;;;;;22.90;5.75;;;9.60;99.90;;;;;;6186725;23;20044;-93
2021/12/15 02:02:53;;;;;;;30.35;6.50;;;9.60;99.90;;;;;;6187242;23;20127;-93
2021/12/15 02:05:44;;;;;;;24.70;6.13;;;9.60;99.90;;;;;;6163828;23;20079;-93
2021/12/15 02:08:36;;;;;;;21.52;5.53;;;9.60;99.90;;;;;;6162917;23;20024;-93
2021/12/15 02:11:40;;;;;;;25.90;5.20;;;9.60;99.90;;;;;;6136034;23;20021;-92
2021/12/15 02:14:37;;;;;;;18.73;5.70;;;9.60;99.90;;;;;;6164654;23;20025;-93
2021/12/15 02:17:46;;;;;;;11.10;4.28;;;9.60;99.90;;;;;;6165277;23;20028;-94
2021/12/15 02:20:44;;;;;;;25.25;5.10;;;9.60;99.90;;;;;;6164103;23;20075;-93
2021/12/15 02:23:45;;;;;;;28.80;5.38;;;9.60;99.90;;;;;;6164960;23;20031;-94
2021/12/15 02:26:44;;;;;;;18.20;5.03;;;9.70;99.90;;;;;;6165710;23;20021;-92
2021/12/15 02:29:38;;;;;;;25.40;4.35;;;9.70;99.90;;;;;;6163036;23;20104;-93
2021/12/15 02:32:56;;;;;;;20.83;5.03;;;9.70;99.90;;;;;;6166791;23;20021;-94
2021/12/15 02:38:58;;;;;;;24.45;4.65;;;9.70;99.90;;;;;;6186590;23;20441;-93
2021/12/15 02:41:52;;;;;;;21.60;5.63;;;9.70;99.90;;;;;;6163923;23;20037;-94
2021/12/15 02:44:49;;;;;;;15.77;4.50;;;9.70;99.90;;;;;;6186793;23;20088;-93
2021/12/15 02:47:46;;;;;;;23.73;5.22;;;9.60;99.90;;;;;;6163393;23;20029;-93
2021/12/15 02:50:37;;;;;;;14.27;3.95;;;9.60;99.90;;;;;;6185975;23;20441;-92
2021/12/15 02:53:30;;;;;;;21.23;5.05;;;9.60;99.90;;;;;;6164960;23;20025;-93
2021/12/15 02:56:36;;;;;;;15.13;3.38;;;9.60;99.90;;;;;;6163168;23;20025;-94
2021/12/15 03:00:01;;;;;;;23.17;3.90;;;9.60;99.90;;;;;;6165795;23;20125;-94
2021/12/15 03:06:53;;;;;;;21.42;4.82;;;9.60;99.90;;;;;;6097110;23;20022;-93
2021/12/15 03:16:40;;;;;;;17.38;5.88;;;9.70;99.90;;;;;;6101359;23;20069;-93
2021/12/15 03:19:53;;;;;;;16.15;4.20;;;9.70;99.90;;;;;;6100671;23;20350;-94
2021/12/15 03:26:17;;;;;;;29.02;4.82;;;9.70;99.90;;;;;;6152009;23;20017;-94
2021/12/15 03:35:47;;;;;;;28.15;5.20;;;9.70;99.90;;;;;;6156023;23;20512;-93
2021/12/15 03:38:34;;;;;;;18.13;4.35;;;9.70;99.90;;;;;;6133613;23;20080;-93
2021/12/15 03:41:24;;;;;;;9.27;4.68;;;9.70;99.90;;;;;;6133348;23;20076;-94
2021/12/15 03:44:06;;;;;;;23.38;4.80;;;9.60;99.90;;;;;;6132771;23;20021;-93
2021/12/15 03:46:49;;;;;;;17.60;4.82;;;9.70;99.90;;;;;;6133158;23;20105;-93
2021/12/15 03:49:36;;;;;;;20.08;5.93;;;9.70;99.90;;;;;;6133342;23;20100;-92
2021/12/15 03:52:27;;;;;;;17.90;5.15;;;9.70;99.90;;;;;;6133762;23;20104;-94
2021/12/15 03:55:09;;;;;;;27.30;5.93;;;9.70;99.90;;;;;;6131346;23;20357;-94
2021/12/15 03:58:11;;;;;;;23.73;6.35;;;9.70;99.90;;;;;;6134005;23;20060;-94
2021/12/15 04:01:08;;;;;;;30.20;5.90;;;9.70;99.90;;;;;;6155623;23;20044;-93
2021/12/15 04:04:01;;;;;;;19.77;4.85;;;9.70;99.90;;;;;;6131299;23;20044;-95
2021/12/15 04:06:49;;;;;;;17.00;4.10;;;9.70;99.90;;;;;;6132176;23;20014;-95
2021/12/15 04:13:02;;;;;;;16.35;4.53;;;9.70;99.90;;;;;;6154874;23;20021;-93
2021/12/15 04:19:23;;;;;;;25.23;4.80;;;9.70;99.90;;;;;;6180270;23;20402;-92
2021/12/15 04:22:49;;;;;;;18.33;5.43;;;9.70;99.90;;;;;;6132513;23;20018;-93
2021/12/15 04:25:44;;;;;;;19.20;5.45;;;9.70;99.90;;;;;;6132273;23;20025;-93
2021/12/15 04:28:40;;;;;;;14.68;4.50;;;9.60;99.90;;;;;;6155454;23;20085;-95
2021/12/15 04:31:33;;;;;;;17.35;4.60;;;9.60;99.90;;;;;;6156932;23;20019;-94
2021/12/15 04:34:45;;;;;;;13.35;4.75;;;9.60;99.90;;;;;;6156157;23;20096;-94
2021/12/15 04:41:10;;;;;;;18.17;4.47;;;9.70;99.90;;;;;;6137125;23;20025;-94
2021/12/15 04:44:15;;;;;;;11.55;5.03;;;9.60;99.90;;;;;;6135724;23;20021;-94
2021/12/15 04:47:31;;;;;;;22.75;4.57;;;9.70;99.90;;;;;;6136890;23;20068;-93
2021/12/15 04:50:47;;;;;;;18.38;6.13;;;9.70;99.90;;;;;;6132708;23;20104;-95
2021/12/15 04:53:37;;;;;;;16.73;3.63;;;9.70;99.90;;;;;;6155115;23;20021;-93
2021/12/15 04:56:33;;;;;;;21.83;4.82;;;9.70;99.90;;;;;;6133633;23;20028;-92
2021/12/15 04:59:45;;;;;;;9.50;4.25;;;9.70;99.90;;;;;;6156027;23;20485;-93
2021/12/15 05:02:23;;;;;;;17.95;4.82;;;9.60;99.90;;;;;;6130286;23;20044;-94
2021/12/15 05:05:19;;;;;;;12.40;4.20;;;9.60;99.90;;;;;;6122285;23;20018;-93
2021/12/15 05:08:20;;;;;;;;;;;9.70;99.90;;;;;;6137042;23;20446;-94
2021/12/15 05:11:00;;;;;;;12.52;3.47;;;9.70;99.90;;;;;;6155852;23;19987;-94
2021/12/15 05:13:40;;;;;;;13.45;4.43;;;9.70;99.90;;;;;;6132731;23;20076;-92
2021/12/15 05:16:24;;;;;;;9.45;4.28;;;9.70;99.90;;;;;;6167108;23;20052;-94
2021/12/15 05:19:05;;;;;;;18.50;4.63;;;9.70;99.90;;;;;;6167046;23;20027;-93
2021/12/15 05:22:13;;;;;;;18.80;4.25;;;9.70;99.90;;;;;;6166256;23;20021;-93
2021/12/15 16:11:50;;;;;;;11.00;1.02;;;9.80;99.90;;;;;;6221147;22;20043;-92
2021/12/15 16:15:27;;;;;;;2.25;0.85;;;9.80;99.90;;;;;;6227017;23;20026;-92
2021/12/15 17:15:15;;;;;;;11.23;1.90;;;9.40;99.90;;;;;;5987474;24;20462;-92
2021/12/15 17:19:13;;;;;;;7.38;1.65;;;9.40;99.90;;;;;;5886792;24;20351;-95
2021/12/15 21:53:05;;;;;;;16.20;3.17;;;8.80;99.90;;;;;;6236664;22;20039;-92
2021/12/15 21:55:53;;;;;;;15.95;2.83;;;8.90;99.90;;;;;;6195558;23;20040;-92
2021/12/15 21:58:51;;;;;;;14.52;2.53;;;8.80;99.90;;;;;;6200780;23;20016;-91
2021/12/15 22:01:56;;;;;;;11.13;2.63;;;8.80;99.90;;;;;;6191812;23;20020;-94
2021/12/15 22:04:38;;;;;;;8.48;2.13;;;8.80;99.90;;;;;;6189655;23;20043;-92
